Time;durP1;ratioP1;P1;durP2;ratioP2;P2;SDS_P1;SDS_P2;PMS_P1;PMS_P2;Temp;Humidity;BMP_temperature;BMP_pressure;BME280_temperature;BME280_humidity;BME280_pressure;Samples;Min_cycle;Max_cycle;Signal;HPM_P1;HPM_P2
2023/05/18 00:00:15;;;;;;;7.23;2.57;;;;;;;9.71;100.00;99957.06;4909033;29;20197;-78
2023/05/18 00:02:47;;;;;;;6.07;2.03;;;;;;;9.78;100.00;99956.78;4896110;29;20210;-78
2023/05/18 00:05:16;;;;;;;6.77;2.20;;;;;;;9.65;100.00;99953.84;4895739;29;20316;-78
2023/05/18 00:07:49;;;;;;;9.40;2.70;;;;;;;9.65;100.00;99956.50;4889160;29;20202;-78
2023/05/18 00:10:19;;;;;;;7.17;2.23;;;;;;;9.64;100.00;99946.84;4890090;29;20226;-78
2023/05/18 00:12:49;;;;;;;6.20;2.17;;;;;;;9.52;100.00;99942.16;4891135;29;20662;-78
2023/05/18 00:15:18;;;;;;;10.80;2.87;;;;;;;9.52;100.00;99940.38;4832792;29;20200;-78
2023/05/18 00:17:49;;;;;;;6.17;2.20;;;;;;;9.35;100.00;99951.72;4840724;29;20207;-78
2023/05/18 00:20:20;;;;;;;8.27;2.90;;;;;;;9.28;100.00;99947.66;4872218;29;20241;-78
2023/05/18 00:22:51;;;;;;;6.83;2.33;;;;;;;9.31;100.00;99944.88;4931512;29;20196;-78
2023/05/18 00:25:20;;;;;;;6.63;2.40;;;;;;;9.21;100.00;99955.94;4871996;29;20283;-78
2023/05/18 00:27:50;;;;;;;8.97;2.73;;;;;;;9.21;100.00;99954.16;4872093;29;20222;-78
2023/05/18 00:30:19;;;;;;;8.70;2.70;;;;;;;8.89;100.00;99951.19;4872165;29;20218;-78
2023/05/18 00:32:48;;;;;;;9.00;2.70;;;;;;;9.00;100.00;99947.19;4882985;29;20205;-78
2023/05/18 00:35:19;;;;;;;10.30;2.60;;;;;;;9.08;100.00;99948.56;4930725;29;20217;-78
2023/05/18 00:37:47;;;;;;;5.00;2.10;;;;;;;9.10;100.00;99937.94;4925752;29;20201;-77
2023/05/18 00:40:18;;;;;;;9.73;3.00;;;;;;;8.94;100.00;99945.69;4927466;29;20205;-78
2023/05/18 00:42:46;;;;;;;7.03;2.40;;;;;;;9.01;100.00;99949.78;4866264;29;20217;-78
2023/05/18 00:45:15;;;;;;;6.47;2.67;;;;;;;8.96;100.00;99950.88;4915449;29;20249;-78
2023/05/18 00:47:47;;;;;;;7.70;2.33;;;;;;;8.91;100.00;99947.59;4878505;29;20675;-78
2023/05/18 00:50:16;;;;;;;6.50;2.50;;;;;;;9.00;100.00;99944.56;4911959;29;20209;-78
2023/05/18 00:52:46;;;;;;;7.00;2.90;;;;;;;8.89;100.00;99947.69;4910716;29;20670;-78
2023/05/18 00:55:18;;;;;;;8.90;2.70;;;;;;;8.73;100.00;99946.63;4909883;29;20210;-78
2023/05/18 00:57:47;;;;;;;7.33;2.30;;;;;;;8.63;100.00;99943.53;4912603;29;20228;-78
2023/05/18 01:00:16;;;;;;;8.27;2.30;;;;;;;8.59;100.00;99945.47;4908002;29;20208;-77
2023/05/18 01:02:45;;;;;;;9.07;2.30;;;;;;;8.61;100.00;99940.09;4911329;29;20201;-78
2023/05/18 01:05:16;;;;;;;9.10;3.20;;;;;;;8.79;100.00;99949.00;4911212;29;20251;-78
2023/05/18 01:07:45;;;;;;;11.47;3.03;;;;;;;8.76;100.00;99939.41;4960410;28;20211;-78
2023/05/18 01:10:17;;;;;;;8.47;2.70;;;;;;;8.78;100.00;99942.88;4986899;28;20232;-78
2023/05/18 01:12:51;;;;;;;8.03;2.50;;;;;;;8.64;100.00;99947.03;4987678;28;20214;-78
2023/05/18 01:15:22;;;;;;;7.73;2.57;;;;;;;8.57;100.00;99942.00;4990920;28;20195;-78
2023/05/18 01:18:09;;;;;;;7.57;2.97;;;;;;;8.35;100.00;99946.50;4988482;28;20199;-78
2023/05/18 01:20:44;;;;;;;13.13;3.00;;;;;;;8.41;100.00;99950.66;4911637;29;20202;-78
2023/05/18 01:23:45;;;;;;;8.60;2.63;;;;;;;8.18;100.00;99952.44;4908642;29;20202;-78
2023/05/18 01:26:23;;;;;;;7.73;2.40;;;;;;;8.24;100.00;99949.56;4912152;29;20257;-78
2023/05/18 01:28:53;;;;;;;9.60;2.83;;;;;;;8.15;100.00;99949.06;4908408;29;20208;-77
2023/05/18 01:31:23;;;;;;;8.00;2.63;;;;;;;8.06;100.00;99954.72;4908440;29;20222;-78
2023/05/18 01:33:53;;;;;;;9.37;2.70;;;;;;;8.03;100.00;99963.63;4908562;29;20205;-78
2023/05/18 01:36:22;;;;;;;7.90;2.50;;;;;;;8.04;100.00;99955.66;4909396;29;20214;-78
2023/05/18 01:38:51;;;;;;;4.73;2.67;;;;;;;7.89;100.00;99958.91;4954019;28;20655;-78
2023/05/18 01:41:23;;;;;;;6.97;3.13;;;;;;;7.95;100.00;99963.09;4987020;28;20203;-78
2023/05/18 01:44:00;;;;;;;13.57;2.67;;;;;;;8.00;100.00;99955.81;4986641;28;20195;-78
2023/05/18 01:46:36;;;;;;;6.07;2.50;;;;;;;7.72;100.00;99956.97;4989436;28;20199;-78
2023/05/18 01:49:13;;;;;;;5.17;2.50;;;;;;;7.90;100.00;99963.25;4984087;28;20207;-78
2023/05/18 01:51:46;;;;;;;8.03;2.90;;;;;;;7.87;100.00;99947.56;4927778;29;20225;-79
2023/05/18 01:54:17;;;;;;;9.03;2.63;;;;;;;7.89;100.00;99953.63;4930645;29;20284;-79
2023/05/18 01:56:50;;;;;;;6.57;2.90;;;;;;;7.79;100.00;99956.69;4929184;29;20736;-78
2023/05/18 01:59:21;;;;;;;7.40;2.60;;;;;;;7.65;100.00;99958.09;4911389;29;20284;-78
2023/05/18 02:01:49;;;;;;;8.60;3.00;;;;;;;7.81;100.00;99955.69;4914418;29;20201;-79
2023/05/18 02:04:27;;;;;;;8.67;3.10;;;;;;;7.92;100.00;99956.16;4913808;29;20257;-78
2023/05/18 02:06:55;;;;;;;8.13;2.50;;;;;;;7.77;100.00;99954.13;4894636;29;20201;-78
2023/05/18 02:09:27;;;;;;;8.60;2.57;;;;;;;7.67;100.00;99952.78;4889725;29;20666;-78
2023/05/18 02:11:58;;;;;;;7.53;3.23;;;;;;;7.72;100.00;99951.69;4850052;29;20233;-78
2023/05/18 02:14:26;;;;;;;10.50;2.93;;;;;;;7.70;100.00;99947.38;4892254;29;20262;-78
2023/05/18 02:16:57;;;;;;;8.03;2.70;;;;;;;7.70;100.00;99955.28;4931888;28;20242;-78
2023/05/18 02:19:25;;;;;;;10.30;2.80;;;;;;;7.69;100.00;99957.06;4966572;28;20223;-78
2023/05/18 02:21:54;;;;;;;9.67;2.90;;;;;;;7.64;100.00;99963.44;4966538;28;20255;-79
2023/05/18 02:24:23;;;;;;;8.63;3.03;;;;;;;7.46;100.00;99960.59;4965322;28;20195;-78
2023/05/18 02:26:51;;;;;;;9.00;2.80;;;;;;;7.36;100.00;99953.97;4967849;28;20207;-78
2023/05/18 02:29:21;;;;;;;7.87;3.23;;;;;;;7.42;100.00;99958.13;4967836;28;20195;-78
2023/05/18 02:31:50;;;;;;;6.93;2.50;;;;;;;7.40;100.00;99957.31;4966599;28;20212;-78
2023/05/18 02:34:20;;;;;;;8.53;3.10;;;;;;;7.33;100.00;99950.56;4970625;28;20706;-78
2023/05/18 02:36:49;;;;;;;8.30;3.10;;;;;;;7.18;100.00;99949.38;4967007;28;20262;-78
2023/05/18 02:39:17;;;;;;;5.60;2.57;;;;;;;7.28;100.00;99953.38;4964639;28;20212;-79
2023/05/18 02:41:45;;;;;;;8.83;2.70;;;;;;;7.14;100.00;99953.03;4964146;28;20237;-78
2023/05/18 02:44:14;;;;;;;5.33;2.30;;;;;;;7.21;100.00;99954.53;4972795;28;20290;-78
2023/05/18 02:46:44;;;;;;;7.30;2.80;;;;;;;7.36;100.00;99955.75;4963710;28;20226;-78
2023/05/18 02:49:12;;;;;;;8.43;3.20;;;;;;;7.03;100.00;99957.84;4964574;28;20208;-78
2023/05/18 02:51:40;;;;;;;7.23;2.70;;;;;;;7.06;100.00;99955.97;4974120;28;20223;-78
2023/05/18 02:54:09;;;;;;;5.83;3.17;;;;;;;6.93;100.00;99952.03;4966048;28;20198;-78
2023/05/18 02:56:40;;;;;;;6.47;2.93;;;;;;;6.87;100.00;99962.81;4965805;28;20678;-78
2023/05/18 02:59:08;;;;;;;5.80;2.93;;;;;;;7.03;100.00;99958.69;4966480;28;20233;-78
2023/05/18 03:01:37;;;;;;;9.13;2.77;;;;;;;7.00;100.00;99961.44;4967577;28;20204;-78
2023/05/18 03:04:07;;;;;;;7.67;3.00;;;;;;;6.85;100.00;99960.25;4964618;28;20200;-78
2023/05/18 03:06:39;;;;;;;10.83;3.33;;;;;;;6.90;100.00;99967.97;4983554;28;20248;-78
2023/05/18 03:09:07;;;;;;;7.87;3.20;;;;;;;6.75;100.00;99969.34;4987636;28;20650;-78
2023/05/18 03:11:35;;;;;;;6.60;2.90;;;;;;;6.72;100.00;99972.13;4988575;28;20199;-78
2023/05/18 03:14:03;;;;;;;7.47;2.77;;;;;;;6.64;100.00;99968.88;4981618;28;20231;-78
2023/05/18 03:16:32;;;;;;;7.90;3.33;;;;;;;6.38;100.00;99963.69;4990541;28;20199;-78
2023/05/18 03:19:01;;;;;;;8.23;2.60;;;;;;;6.45;100.00;99966.03;4982390;28;20198;-78
2023/05/18 03:21:34;;;;;;;7.23;3.03;;;;;;;6.55;100.00;99963.94;4985998;28;20191;-78
2023/05/18 03:24:04;;;;;;;9.30;3.60;;;;;;;6.55;100.00;99964.78;4988008;28;20203;-78
2023/05/18 03:26:32;;;;;;;6.53;3.00;;;;;;;6.69;100.00;99966.09;4940278;28;20199;-78
2023/05/18 03:29:01;;;;;;;8.13;3.20;;;;;;;6.60;100.00;99968.13;4984162;28;20199;-78
2023/05/18 03:31:32;;;;;;;9.40;3.53;;;;;;;6.73;100.00;99968.56;4986074;28;20195;-78
2023/05/18 03:34:02;;;;;;;7.80;3.20;;;;;;;6.53;100.00;99965.75;4982652;28;20249;-78
2023/05/18 03:36:31;;;;;;;13.03;3.50;;;;;;;6.39;100.00;99960.13;4984205;28;20206;-78
2023/05/18 03:39:00;;;;;;;8.40;3.13;;;;;;;6.59;100.00;99969.06;4922935;29;20209;-78
2023/05/18 03:41:30;;;;;;;6.70;2.80;;;;;;;6.74;100.00;99962.38;4928832;29;20205;-78
2023/05/18 03:43:58;;;;;;;5.87;3.00;;;;;;;6.69;100.00;99961.69;4931692;29;20276;-78
2023/05/18 03:46:27;;;;;;;11.20;3.20;;;;;;;6.74;100.00;99967.66;4928112;29;20212;-78
2023/05/18 03:48:56;;;;;;;10.03;3.03;;;;;;;6.63;100.00;99964.53;4924335;29;20205;-78
2023/05/18 03:51:25;;;;;;;10.97;3.50;;;;;;;6.48;100.00;99970.34;4891951;29;20206;-78
2023/05/18 03:53:57;;;;;;;9.00;3.37;;;;;;;6.49;100.00;99972.91;4883300;29;20222;-78
2023/05/18 03:56:26;;;;;;;11.53;3.93;;;;;;;6.41;100.00;99974.09;4893091;29;20253;-78
2023/05/18 03:58:54;;;;;;;9.20;3.93;;;;;;;6.18;100.00;99978.34;4910161;29;20389;-78
2023/05/18 04:01:23;;;;;;;8.67;3.43;;;;;;;6.22;100.00;99979.97;4905696;29;20205;-78
2023/05/18 04:03:55;;;;;;;11.63;4.03;;;;;;;6.31;100.00;99970.91;4908928;29;20194;-78
2023/05/18 04:06:25;;;;;;;9.80;3.60;;;;;;;6.14;100.00;99975.88;4910306;29;20334;-78
2023/05/18 04:08:53;;;;;;;8.27;3.30;;;;;;;6.14;100.00;99981.97;4926937;28;20278;-78
2023/05/18 04:11:23;;;;;;;9.63;3.43;;;;;;;6.14;100.00;99983.75;4991372;28;20202;-78
2023/05/18 04:13:51;;;;;;;9.00;3.50;;;;;;;6.34;100.00;99973.44;4986766;28;20238;-78
2023/05/18 04:16:21;;;;;;;8.90;3.90;;;;;;;6.11;100.00;99976.81;4990607;28;20282;-78
2023/05/18 04:18:52;;;;;;;8.03;3.90;;;;;;;6.21;100.00;99983.50;4987236;28;20191;-78
2023/05/18 04:21:21;;;;;;;12.83;4.03;;;;;;;6.15;100.00;99980.22;4987384;28;20203;-78
2023/05/18 04:23:50;;;;;;;7.67;3.60;;;;;;;6.17;100.00;99976.59;4985335;28;20203;-78
2023/05/18 04:26:20;;;;;;;8.30;3.77;;;;;;;6.09;100.00;99981.28;4931697;29;20308;-78
2023/05/18 04:28:51;;;;;;;12.33;4.33;;;;;;;6.06;100.00;99977.88;4925524;29;20320;-78
2023/05/18 04:31:20;;;;;;;10.27;4.27;;;;;;;6.10;100.00;99980.38;4927853;29;20189;-78
2023/05/18 04:33:50;;;;;;;8.50;3.53;;;;;;;6.16;100.00;99981.94;4928284;29;20221;-78
2023/05/18 04:36:24;;;;;;;8.83;3.37;;;;;;;6.18;100.00;99988.03;4927422;29;20284;-78
2023/05/18 04:38:52;;;;;;;7.30;3.40;;;;;;;6.37;100.00;99980.34;4930360;29;20220;-78
2023/05/18 04:41:21;;;;;;;9.27;3.37;;;;;;;6.31;100.00;99991.94;4926917;29;20209;-78
2023/05/18 04:43:52;;;;;;;11.07;3.57;;;;;;;6.40;100.00;99989.03;4944838;28;20203;-79
2023/05/18 04:46:22;;;;;;;9.80;3.40;;;;;;;6.46;100.00;99987.94;4992805;28;20643;-78
2023/05/18 04:48:51;;;;;;;6.17;3.03;;;;;;;6.27;100.00;99985.06;4909330;29;20260;-78
2023/05/18 04:51:20;;;;;;;7.90;3.47;;;;;;;6.51;100.00;99984.25;4910461;29;20190;-78
2023/05/18 04:53:51;;;;;;;9.63;3.40;;;;;;;6.52;100.00;99985.97;4909966;29;20795;-78
2023/05/18 04:56:21;;;;;;;7.47;2.80;;;;;;;6.64;100.00;99984.69;4912812;29;20193;-78
2023/05/18 04:58:51;;;;;;;10.57;3.40;;;;;;;6.66;100.00;99989.88;4913595;29;20205;-79
2023/05/18 05:01:19;;;;;;;9.97;2.83;;;;;;;6.91;100.00;99989.91;4914000;29;20202;-78
2023/05/18 05:03:48;;;;;;;8.17;3.00;;;;;;;6.94;100.00;99990.63;4907032;29;20201;-78
2023/05/18 05:06:17;;;;;;;8.60;3.30;;;;;;;6.98;100.00;99991.41;4907952;29;20239;-78
2023/05/18 05:08:48;;;;;;;9.30;2.90;;;;;;;6.87;100.00;99992.66;4912106;29;20198;-78
2023/05/18 05:11:17;;;;;;;7.57;3.17;;;;;;;7.08;100.00;99982.25;4916124;29;20198;-78
2023/05/18 05:13:45;;;;;;;13.83;3.30;;;;;;;7.17;100.00;99992.44;4942743;28;20220;-78
2023/05/18 05:16:15;;;;;;;6.73;3.23;;;;;;;7.23;100.00;99988.72;4970861;28;20213;-78
2023/05/18 05:18:44;;;;;;;9.73;3.67;;;;;;;7.18;100.00;99988.91;4970248;28;20204;-78
2023/05/18 05:21:15;;;;;;;12.07;3.50;;;;;;;7.46;100.00;99992.22;4969330;28;20204;-78
2023/05/18 05:23:44;;;;;;;8.77;3.37;;;;;;;7.56;100.00;99992.75;4964758;28;20204;-78
2023/05/18 05:26:12;;;;;;;11.30;3.63;;;;;;;7.44;100.00;99990.56;4968914;28;20211;-78
2023/05/18 05:28:41;;;;;;;8.17;2.97;;;;;;;7.56;100.00;99984.81;4963635;28;20196;-78
2023/05/18 05:31:09;;;;;;;15.60;3.50;;;;;;;7.70;100.00;99979.00;4966083;28;20195;-78
2023/05/18 05:33:40;;;;;;;11.50;4.00;;;;;;;7.85;100.00;99978.41;4968132;28;20224;-78
2023/05/18 05:36:09;;;;;;;12.07;3.33;;;;;;;7.99;100.00;99981.34;4967344;28;20213;-78
2023/05/18 05:38:37;;;;;;;7.37;2.70;;;;;;;8.20;100.00;99978.75;4970566;28;20245;-78
2023/05/18 05:41:06;;;;;;;8.60;3.23;;;;;;;8.23;100.00;99987.44;4964157;28;20223;-78
2023/05/18 05:43:34;;;;;;;9.47;3.57;;;;;;;8.25;100.00;99985.56;4967463;28;20301;-79
2023/05/18 05:46:03;;;;;;;10.47;2.67;;;;;;;8.47;100.00;99976.78;4965037;28;20203;-78
2023/05/18 05:48:32;;;;;;;8.50;2.60;;;;;;;8.35;100.00;99977.31;4965567;28;20203;-78
2023/05/18 05:51:02;;;;;;;12.57;2.80;;;;;;;8.38;100.00;99983.31;4972365;28;20402;-78
2023/05/18 05:53:31;;;;;;;5.70;2.57;;;;;;;8.42;100.00;99984.06;4964450;28;20296;-78
2023/05/18 05:55:59;;;;;;;7.63;3.03;;;;;;;8.53;100.00;99982.69;4963095;28;20208;-78
2023/05/18 05:58:28;;;;;;;9.63;2.70;;;;;;;8.54;100.00;99988.81;4963543;28;20655;-79
2023/05/18 06:00:56;;;;;;;9.13;2.93;;;;;;;8.77;100.00;99983.41;4972035;28;20218;-78
2023/05/18 06:03:25;;;;;;;8.23;2.53;;;;;;;8.87;100.00;99982.06;4971847;28;20200;-78
2023/05/18 06:05:55;;;;;;;8.97;3.00;;;;;;;8.74;100.00;99987.97;4975144;28;20266;-78
2023/05/18 06:08:25;;;;;;;7.07;2.70;;;;;;;8.77;100.00;99993.97;4991498;28;20207;-78
2023/05/18 06:10:57;;;;;;;9.30;2.80;;;;;;;8.97;100.00;99982.53;4990389;28;20205;-79
2023/05/18 06:13:26;;;;;;;14.80;5.67;;;;;;;8.98;100.00;99997.47;4988536;28;20242;-79
2023/05/18 06:15:55;;;;;;;10.90;4.07;;;;;;;9.09;100.00;99991.72;4971658;28;20209;-78
2023/05/18 06:18:23;;;;;;;10.43;3.70;;;;;;;9.08;100.00;99990.00;4993861;28;20191;-78
2023/05/18 06:20:52;;;;;;;10.73;3.37;;;;;;;9.29;100.00;99993.47;4992428;28;20203;-78
2023/05/18 06:23:22;;;;;;;10.83;5.10;;;;;;;9.29;100.00;99996.09;4990523;28;20199;-78
2023/05/18 06:25:52;;;;;;;10.60;5.97;;;;;;;9.44;100.00;99992.75;4991057;28;20222;-78
2023/05/18 06:28:23;;;;;;;12.47;4.37;;;;;;;9.30;100.00;99990.75;4993212;28;20190;-78
2023/05/18 06:30:51;;;;;;;12.50;5.07;;;;;;;9.42;100.00;99997.25;4990114;28;20199;-78
2023/05/18 06:33:22;;;;;;;10.07;3.60;;;;;;;9.64;100.00;99989.19;4992017;28;20191;-78
2023/05/18 06:35:51;;;;;;;6.17;2.80;;;;;;;9.84;100.00;99990.88;4984518;28;20230;-78
2023/05/18 06:38:19;;;;;;;8.67;2.90;;;;;;;9.81;100.00;99991.88;4956211;28;20206;-78
2023/05/18 06:40:48;;;;;;;10.33;4.23;;;;;;;9.95;100.00;99992.09;4988221;28;20267;-78
2023/05/18 06:43:18;;;;;;;13.60;3.87;;;;;;;10.09;100.00;99991.44;4984659;28;20302;-79
2023/05/18 06:45:46;;;;;;;7.90;3.67;;;;;;;10.11;100.00;99994.00;4979976;28;20203;-78
2023/05/18 06:48:15;;;;;;;6.40;2.97;;;;;;;10.24;100.00;100008.41;4983648;28;20195;-78
2023/05/18 06:50:44;;;;;;;11.57;3.20;;;;;;;10.25;100.00;100002.16;4983265;28;20210;-79
2023/05/18 06:53:14;;;;;;;9.60;3.07;;;;;;;10.58;100.00;99992.53;4982491;28;20218;-79
2023/05/18 06:55:42;;;;;;;9.60;2.97;;;;;;;10.43;100.00;99998.63;4983889;28;20263;-79
2023/05/18 06:58:11;;;;;;;8.03;2.83;;;;;;;10.40;100.00;100005.84;4987316;28;20692;-79
2023/05/18 07:00:41;;;;;;;8.23;3.10;;;;;;;10.52;100.00;100006.09;4985871;28;20662;-78
2023/05/18 07:03:09;;;;;;;7.57;2.83;;;;;;;10.67;100.00;100003.59;4986533;28;20203;-79
2023/05/18 07:05:38;;;;;;;13.00;2.90;;;;;;;10.65;100.00;100002.81;4983169;28;20227;-79
2023/05/18 07:08:08;;;;;;;7.13;3.70;;;;;;;11.02;100.00;100002.66;4987184;28;20227;-79
2023/05/18 07:10:37;;;;;;;9.20;3.57;;;;;;;10.87;100.00;100006.09;4986566;28;20218;-78
2023/05/18 07:13:07;;;;;;;7.40;2.80;;;;;;;11.06;100.00;100004.19;4988429;28;20210;-78
2023/05/18 07:15:35;;;;;;;8.43;2.53;;;;;;;11.14;100.00;100006.44;4983939;28;20226;-79
2023/05/18 07:18:05;;;;;;;10.07;2.30;;;;;;;11.08;100.00;100007.63;4985808;28;20199;-79
2023/05/18 07:20:33;;;;;;;10.63;2.80;;;;;;;11.16;100.00;100012.53;4929413;29;20212;-79
2023/05/18 07:23:02;;;;;;;8.07;2.53;;;;;;;11.27;100.00;100015.44;4933291;29;20211;-79
2023/05/18 07:25:30;;;;;;;9.83;3.23;;;;;;;11.26;100.00;100010.25;4923491;29;20689;-78
2023/05/18 07:28:00;;;;;;;9.80;2.93;;;;;;;11.45;100.00;100011.81;4928606;29;20209;-79
2023/05/18 07:30:29;;;;;;;7.20;3.27;;;;;;;11.50;100.00;100008.09;4925580;29;20197;-78
2023/05/18 07:32:58;;;;;;;9.93;3.47;;;;;;;11.56;100.00;100007.72;4923658;29;20209;-79
2023/05/18 07:35:28;;;;;;;10.57;3.00;;;;;;;11.67;100.00;100008.00;4929744;29;20233;-79
2023/05/18 07:37:59;;;;;;;10.00;4.03;;;;;;;11.82;100.00;100017.81;4937960;28;20278;-79
2023/05/18 07:40:27;;;;;;;8.80;2.80;;;;;;;11.92;100.00;100010.19;4968422;28;20211;-79
2023/05/18 07:42:55;;;;;;;9.53;3.17;;;;;;;11.85;100.00;100008.81;4960026;28;20241;-79
2023/05/18 07:45:24;;;;;;;11.10;4.53;;;;;;;11.99;100.00;100011.56;4992732;28;20242;-79
2023/05/18 07:47:52;;;;;;;8.83;2.80;;;;;;;12.24;100.00;100011.03;4991987;28;20195;-79
2023/05/18 07:50:21;;;;;;;6.43;2.50;;;;;;;12.42;100.00;100004.66;4987508;28;20199;-79
2023/05/18 07:53:05;;;;;;;8.90;2.80;;;;;;;12.35;100.00;100005.94;4989320;28;20277;-79
2023/05/18 07:55:35;;;;;;;9.33;2.90;;;;;;;12.84;100.00;99995.97;4990669;28;20223;-79
2023/05/18 07:58:03;;;;;;;8.23;2.30;;;;;;;12.66;100.00;100004.19;4985743;28;20218;-79
2023/05/18 08:00:32;;;;;;;8.57;2.60;;;;;;;12.87;100.00;99997.59;4991294;28;20225;-79
2023/05/18 08:03:01;;;;;;;7.70;2.30;;;;;;;12.91;100.00;100007.06;4991705;28;20278;-79
2023/05/18 08:05:30;;;;;;;9.83;2.50;;;;;;;13.03;100.00;99997.53;4992118;28;20231;-79
2023/05/18 08:08:07;;;;;;;9.80;2.80;;;;;;;13.31;100.00;99994.91;4992589;28;20207;-79
2023/05/18 08:10:35;;;;;;;6.97;2.23;;;;;;;13.03;99.63;99992.22;4990541;28;20241;-79
2023/05/18 08:13:03;;;;;;;9.10;2.27;;;;;;;13.42;100.00;99996.91;4995064;28;20195;-80
2023/05/18 08:15:34;;;;;;;10.57;2.63;;;;;;;13.36;100.00;99984.84;4987838;28;20305;-79
2023/05/18 08:18:03;;;;;;;10.63;2.60;;;;;;;13.61;95.83;99986.81;4991745;28;20730;-79
2023/05/18 08:20:32;;;;;;;8.70;2.70;;;;;;;13.49;93.13;99987.56;4990207;28;20238;-79
2023/05/18 08:23:02;;;;;;;9.67;2.77;;;;;;;13.44;95.04;99979.91;4988766;28;20192;-79
2023/05/18 08:25:31;;;;;;;7.80;2.50;;;;;;;13.84;93.16;99987.16;4993239;28;20289;-79
2023/05/18 08:28:00;;;;;;;8.83;2.73;;;;;;;14.03;93.72;99979.69;4990332;28;20206;-79
2023/05/18 08:30:31;;;;;;;6.97;2.50;;;;;;;14.01;92.14;99982.47;4992315;28;20207;-79
2023/05/18 08:33:00;;;;;;;7.63;2.80;;;;;;;13.93;91.97;99978.56;4999909;28;20286;-79
2023/05/18 08:35:28;;;;;;;7.47;2.27;;;;;;;13.85;94.63;99978.22;4990865;28;20233;-79
2023/05/18 08:37:58;;;;;;;6.03;2.77;;;;;;;14.07;93.10;99977.66;4998416;28;20282;-79
2023/05/18 08:40:37;;;;;;;8.23;2.53;;;;;;;14.19;93.07;99980.41;4987456;28;20206;-79
2023/05/18 08:43:12;;;;;;;8.77;3.13;;;;;;;14.31;89.96;99966.25;4988960;28;20199;-79
2023/05/18 08:45:47;;;;;;;6.53;2.90;;;;;;;14.64;88.76;99972.13;4989555;28;20278;-79
2023/05/18 08:48:16;;;;;;;10.50;2.90;;;;;;;14.43;87.96;99964.59;4988385;28;20207;-79
2023/05/18 08:50:50;;;;;;;9.53;2.53;;;;;;;14.70;90.62;99963.72;4989749;28;20673;-79
2023/05/18 08:53:21;;;;;;;9.50;2.53;;;;;;;14.95;90.68;99966.41;4992512;28;20278;-79
2023/05/18 08:55:54;;;;;;;7.03;2.10;;;;;;;14.88;84.93;99973.13;4991762;28;20293;-79
2023/05/18 08:58:30;;;;;;;8.30;2.57;;;;;;;15.02;85.03;99965.00;4987110;28;20207;-79
2023/05/18 09:01:01;;;;;;;7.40;2.80;;;;;;;15.06;81.30;99968.34;4992724;28;20202;-79
2023/05/18 09:03:31;;;;;;;7.67;2.30;;;;;;;15.04;84.15;99965.75;4990397;28;20286;-79
2023/05/18 09:06:01;;;;;;;7.27;2.63;;;;;;;15.37;79.39;99967.91;4988859;28;20235;-79
2023/05/18 09:08:31;;;;;;;10.97;2.87;;;;;;;15.71;81.29;99974.38;4986743;28;20210;-79
2023/05/18 09:11:03;;;;;;;7.50;2.70;;;;;;;15.41;75.81;99966.69;4915033;29;20202;-79
2023/05/18 09:13:33;;;;;;;12.80;2.87;;;;;;;15.65;71.51;99963.28;4878631;29;20207;-79
2023/05/18 09:16:03;;;;;;;9.80;2.43;;;;;;;15.86;65.90;99964.41;4871405;29;20236;-79
2023/05/18 09:18:31;;;;;;;9.40;2.93;;;;;;;15.78;63.96;99958.75;4869047;29;20207;-79
2023/05/18 09:21:00;;;;;;;8.53;2.50;;;;;;;16.02;62.90;99954.31;4876797;29;20258;-79
2023/05/18 09:23:28;;;;;;;8.70;3.10;;;;;;;16.20;58.52;99949.38;4877513;29;20262;-79
2023/05/18 09:25:59;;;;;;;9.00;2.73;;;;;;;15.91;62.21;99948.00;4879439;29;20199;-79
2023/05/18 09:28:35;;;;;;;7.03;2.60;;;;;;;16.46;59.87;99946.59;4883576;29;20228;-79
2023/05/18 09:31:06;;;;;;;10.30;2.63;;;;;;;16.56;54.53;99950.25;4928543;29;20444;-79
2023/05/18 09:33:36;;;;;;;9.00;2.73;;;;;;;16.57;52.64;99950.16;4897785;29;20409;-79
2023/05/18 09:36:06;;;;;;;7.03;2.50;;;;;;;16.95;49.21;99941.03;4925821;29;20221;-79
2023/05/18 09:38:37;;;;;;;7.10;2.43;;;;;;;16.66;54.63;99929.00;4969824;28;20199;-79
2023/05/18 09:41:11;;;;;;;7.37;2.47;;;;;;;16.54;57.09;99934.34;4995156;28;20199;-77
2023/05/18 09:43:42;;;;;;;7.40;2.90;;;;;;;16.78;51.69;99936.13;4986347;28;20208;-77
2023/05/18 09:46:13;;;;;;;10.07;2.90;;;;;;;16.87;47.42;99932.75;4985923;28;20673;-79
2023/05/18 09:48:45;;;;;;;7.37;2.37;;;;;;;17.07;48.37;99936.53;4993562;28;20209;-79
2023/05/18 09:51:16;;;;;;;10.40;2.67;;;;;;;17.23;52.84;99942.38;4991306;28;20349;-79
2023/05/18 09:53:48;;;;;;;6.93;2.40;;;;;;;17.36;51.53;99942.25;4987232;28;20607;-79
2023/05/18 09:56:18;;;;;;;7.50;2.50;;;;;;;17.20;52.24;99939.97;4993276;28;20219;-79
2023/05/18 09:58:48;;;;;;;7.57;2.50;;;;;;;17.56;49.48;99938.00;4989491;28;20199;-79
2023/05/18 10:01:17;;;;;;;9.27;2.50;;;;;;;17.17;51.30;99941.03;4990022;28;20195;-79
2023/05/18 10:03:48;;;;;;;8.80;2.77;;;;;;;17.21;54.37;99933.63;4992641;28;20194;-79
2023/05/18 10:06:18;;;;;;;8.77;2.73;;;;;;;17.76;50.01;99936.41;4986701;28;20223;-79
2023/05/18 10:08:47;;;;;;;9.87;2.83;;;;;;;17.76;49.20;99937.28;4981969;28;20286;-79
2023/05/18 10:11:20;;;;;;;11.67;2.70;;;;;;;17.90;49.44;99938.84;4986817;28;20195;-79
2023/05/18 10:13:56;;;;;;;11.00;2.60;;;;;;;18.43;52.61;99925.47;4983656;28;20199;-79
2023/05/18 10:16:25;;;;;;;7.50;2.30;;;;;;;17.99;50.93;99924.69;4988542;28;20308;-79
2023/05/18 10:18:55;;;;;;;7.50;2.77;;;;;;;17.94;48.38;99922.34;4986703;28;20199;-79
2023/05/18 10:21:28;;;;;;;7.33;2.70;;;;;;;18.47;45.68;99922.41;4988038;28;20199;-79
2023/05/18 10:23:59;;;;;;;10.67;2.73;;;;;;;18.36;45.35;99911.75;4988209;28;20218;-79
2023/05/18 10:26:30;;;;;;;7.00;2.17;;;;;;;18.68;43.40;99911.72;4992306;28;20198;-79
2023/05/18 10:29:00;;;;;;;6.00;2.70;;;;;;;18.31;44.50;99912.09;4987199;28;20191;-79
2023/05/18 10:31:31;;;;;;;8.90;2.80;;;;;;;18.73;43.43;99914.88;4986701;28;20222;-79
2023/05/18 10:34:00;;;;;;;8.53;2.60;;;;;;;18.75;45.63;99909.34;4987995;28;20211;-79
2023/05/18 10:36:31;;;;;;;5.97;2.33;;;;;;;18.68;44.24;99906.34;4985093;28;20234;-79
2023/05/18 10:39:00;;;;;;;10.23;2.73;;;;;;;18.42;45.69;99907.66;4990949;28;20234;-79
2023/05/18 10:41:32;;;;;;;7.40;2.57;;;;;;;19.11;41.14;99913.38;4987909;28;20654;-80
2023/05/18 10:44:03;;;;;;;7.70;2.60;;;;;;;19.15;42.98;99915.66;4987026;28;20214;-80
2023/05/18 10:46:33;;;;;;;10.03;2.50;;;;;;;18.86;43.99;99909.28;4908665;29;20205;-80
2023/05/18 10:49:04;;;;;;;6.80;2.87;;;;;;;19.27;43.64;99910.19;4911985;29;20229;-80
2023/05/18 10:51:33;;;;;;;8.23;2.70;;;;;;;18.85;43.87;99904.91;4907385;29;20212;-79
2023/05/18 10:54:12;;;;;;;6.37;2.57;;;;;;;19.20;42.92;99898.28;4909500;29;20209;-79
2023/05/18 10:56:43;;;;;;;7.73;2.40;;;;;;;19.38;42.23;99892.13;4911013;29;20236;-79
2023/05/18 10:59:19;;;;;;;7.97;2.60;;;;;;;19.62;44.13;99897.19;4904241;29;20220;-79
2023/05/18 11:01:49;;;;;;;4.50;2.43;;;;;;;19.84;41.65;99895.25;4909981;29;20305;-80
2023/05/18 11:04:23;;;;;;;7.03;2.27;;;;;;;19.92;40.69;99901.63;4914420;29;20290;-79
2023/05/18 11:06:57;;;;;;;4.93;2.40;;;;;;;20.23;40.84;99898.81;4901608;29;20251;-80
2023/05/18 11:09:26;;;;;;;7.10;2.30;;;;;;;19.87;41.16;99897.66;4907151;29;20220;-79
2023/05/18 11:11:58;;;;;;;8.53;2.93;;;;;;;19.70;40.63;99896.50;4974676;28;20199;-79
2023/05/18 11:14:33;;;;;;;9.50;2.60;;;;;;;19.87;43.04;99892.28;4991302;28;20653;-80
2023/05/18 11:17:17;;;;;;;6.13;2.60;;;;;;;19.44;42.63;99888.91;4991399;28;20227;-79
2023/05/18 11:20:11;;;;;;;6.97;2.07;;;;;;;20.19;39.58;99882.13;4992390;28;20204;-79
2023/05/18 11:22:47;;;;;;;6.70;2.60;;;;;;;19.97;40.79;99885.06;4992101;28;20199;-79
2023/05/18 11:25:38;;;;;;;9.67;2.67;;;;;;;20.45;39.57;99882.38;4991769;28;20203;-80
2023/05/18 11:28:08;;;;;;;9.93;2.50;;;;;;;20.21;39.21;99880.13;4991686;28;20680;-80
2023/05/18 11:30:53;;;;;;;8.13;2.03;;;;;;;20.87;38.85;99876.66;4989812;28;20206;-80
2023/05/18 11:33:24;;;;;;;5.80;2.25;;;;;;;20.56;40.36;99881.41;4992786;28;20211;-80
2023/05/18 11:36:06;;;;;;;8.83;3.30;;;;;;;20.36;42.75;99871.59;4984704;28;20203;-80
2023/05/18 11:38:49;;;;;;;17.08;11.02;;;;;;;20.45;41.71;99868.94;4988861;28;20199;-80
2023/05/18 11:41:28;;;;;;;9.00;2.75;;;;;;;20.75;38.48;99870.59;4988159;28;20202;-80
2023/05/18 11:44:17;;;;;;;5.85;2.17;;;;;;;20.81;37.89;99871.84;4986077;28;20203;-79